Time;durP1;ratioP1;P1;durP2;ratioP2;P2;SDS_P1;SDS_P2;PMS_P1;PMS_P2;Temp;Humidity;BMP_temperature;BMP_pressure;BME280_temperature;BME280_humidity;BME280_pressure;Samples;Min_cycle;Max_cycle;Signal;HPM_P1;HPM_P2
2022/03/15 00:02:03;;;;;;;7.43;3.60;;;;;;;19.42;44.83;101419.38;5051637;28;20188;-62
2022/03/15 00:04:29;;;;;;;9.07;3.80;;;;;;;19.43;45.06;101421.03;5034425;28;20765;-62
2022/03/15 00:06:56;;;;;;;10.33;3.47;;;;;;;19.40;45.28;101419.72;5031015;28;20231;-63
2022/03/15 00:09:22;;;;;;;16.27;2.90;;;;;;;19.39;45.56;101417.22;5043701;28;20216;-63
2022/03/15 00:11:47;;;;;;;7.80;2.93;;;;;;;19.43;45.41;101419.00;5048337;28;20433;-62
2022/03/15 00:14:14;;;;;;;7.53;2.80;;;;;;;19.38;45.68;101416.41;5052124;28;20203;-62
2022/03/15 00:16:40;;;;;;;10.70;3.20;;;;;;;19.39;45.68;101408.63;5051632;28;20640;-62
2022/03/15 00:19:06;;;;;;;8.80;2.93;;;;;;;19.48;45.75;101407.31;5033065;28;20430;-62
2022/03/15 00:21:32;;;;;;;11.43;3.67;;;;;;;19.41;45.33;101401.34;5050176;28;20446;-62
2022/03/15 00:23:59;;;;;;;11.20;3.07;;;;;;;19.42;45.24;101402.19;5051999;28;20168;-62
2022/03/15 00:26:25;;;;;;;8.10;3.10;;;;;;;19.37;45.66;101394.66;5047877;28;20555;-62
2022/03/15 00:28:50;;;;;;;7.83;3.20;;;;;;;19.37;45.55;101394.66;5050857;28;20423;-62
2022/03/15 00:31:16;;;;;;;10.63;4.13;;;;;;;19.38;45.99;101406.97;5048700;28;20179;-62
2022/03/15 00:33:43;;;;;;;7.03;3.00;;;;;;;19.36;46.41;101404.44;5050344;28;20226;-62
2022/03/15 00:36:08;;;;;;;10.70;3.70;;;;;;;19.37;45.77;101388.94;5051672;28;20243;-61
2022/03/15 00:38:34;;;;;;;8.70;3.43;;;;;;;19.35;45.98;101390.50;5050838;28;20430;-62
2022/03/15 00:41:00;;;;;;;6.20;3.33;;;;;;;19.33;46.57;101387.16;5050680;28;20180;-61
2022/03/15 00:43:25;;;;;;;11.80;3.77;;;;;;;19.32;45.96;101383.44;5051186;28;20223;-61
2022/03/15 00:45:51;;;;;;;10.10;2.67;;;;;;;19.34;46.41;101386.81;5051003;28;20171;-61
2022/03/15 00:48:16;;;;;;;7.77;3.13;;;;;;;19.33;46.31;101382.28;5050610;28;20190;-61
2022/03/15 00:50:42;;;;;;;12.60;3.47;;;;;;;19.31;46.48;101392.44;5050792;28;20179;-61
2022/03/15 00:53:09;;;;;;;9.53;3.57;;;;;;;19.31;46.39;101398.97;5051012;28;20500;-61
2022/03/15 00:55:35;;;;;;;8.03;3.40;;;;;;;19.33;46.75;101392.88;5050873;28;20251;-61
2022/03/15 00:58:00;;;;;;;8.17;3.10;;;;;;;19.36;47.35;101390.13;5049990;28;20418;-61
2022/03/15 01:00:29;;;;;;;13.57;3.03;;;;;;;19.32;47.46;101391.22;5050490;28;20654;-61
2022/03/15 01:02:54;;;;;;;10.87;3.80;;;;;;;19.32;47.36;101402.69;5047856;28;20240;-61
2022/03/15 01:05:20;;;;;;;8.13;3.00;;;;;;;19.33;47.42;101382.28;5050780;28;20831;-61
2022/03/15 01:07:45;;;;;;;11.17;2.87;;;;;;;19.27;47.61;101383.69;5034304;28;20195;-61
2022/03/15 01:10:11;;;;;;;5.97;2.70;;;;;;;19.27;47.52;101383.69;5030288;28;20227;-61
2022/03/15 01:12:36;;;;;;;7.70;2.93;;;;;;;19.27;47.59;101383.69;5029918;28;20267;-61
2022/03/15 01:15:01;;;;;;;8.90;3.40;;;;;;;19.26;48.00;101376.31;5029273;28;20676;-61
2022/03/15 01:17:27;;;;;;;10.23;3.27;;;;;;;19.24;48.04;101375.84;5032825;28;20177;-61
2022/03/15 01:19:52;;;;;;;6.80;3.17;;;;;;;19.25;48.00;101374.66;5030578;28;20180;-61
2022/03/15 01:22:18;;;;;;;7.53;3.50;;;;;;;19.24;48.00;101372.97;5041834;28;20294;-61
2022/03/15 01:24:43;;;;;;;10.20;3.00;;;;;;;19.25;48.09;101373.78;5050868;28;20172;-61
2022/03/15 01:27:09;;;;;;;8.73;3.20;;;;;;;19.25;48.13;101383.22;5050377;28;20584;-61
2022/03/15 01:29:34;;;;;;;5.30;3.30;;;;;;;19.23;48.23;101385.63;5049842;28;20259;-61
2022/03/15 01:32:00;;;;;;;6.73;3.00;;;;;;;19.22;48.52;101378.22;5050319;28;20184;-61
2022/03/15 01:34:27;;;;;;;8.33;3.57;;;;;;;19.23;48.50;101377.03;5050086;28;20203;-61
2022/03/15 01:36:52;;;;;;;6.40;2.60;;;;;;;19.24;48.43;101377.84;5050210;28;20214;-61
2022/03/15 01:39:18;;;;;;;6.10;3.03;;;;;;;19.24;48.41;101390.16;5049377;28;20494;-61
2022/03/15 01:41:45;;;;;;;6.27;2.83;;;;;;;19.26;48.37;101389.81;5049814;28;20172;-61
2022/03/15 01:44:15;;;;;;;11.87;3.10;;;;;;;19.24;48.61;101381.56;5050072;28;20657;-61
2022/03/15 01:46:40;;;;;;;5.13;2.50;;;;;;;19.26;48.52;101378.34;5049131;28;20819;-61
2022/03/15 01:49:06;;;;;;;8.07;2.60;;;;;;;19.24;48.50;101372.97;5049435;28;20422;-61
2022/03/15 01:51:31;;;;;;;6.37;3.27;;;;;;;19.27;48.43;101380.00;5050188;28;20230;-61
2022/03/15 01:53:57;;;;;;;7.37;2.90;;;;;;;19.26;48.43;101369.75;5046444;28;20194;-61
2022/03/15 01:56:23;;;;;;;10.13;3.07;;;;;;;19.23;48.69;101370.47;5048721;28;20187;-61
2022/03/15 01:58:48;;;;;;;7.40;3.10;;;;;;;19.22;48.87;101375.34;5049601;28;20194;-61
2022/03/15 02:01:14;;;;;;;6.70;3.00;;;;;;;19.23;48.48;101379.06;5049407;28;20438;-61
2022/03/15 02:03:39;;;;;;;5.17;2.43;;;;;;;19.23;48.41;101368.47;5049809;28;20710;-61
2022/03/15 02:06:05;;;;;;;5.20;2.50;;;;;;;19.21;48.71;101370.78;5042831;28;20238;-61
2022/03/15 02:08:35;;;;;;;4.73;2.63;;;;;;;19.20;48.54;101376.88;5037021;28;20176;-61
2022/03/15 02:11:00;;;;;;;7.67;2.77;;;;;;;19.20;48.90;101372.00;5049229;28;20549;-61
2022/03/15 02:13:26;;;;;;;5.23;3.07;;;;;;;19.25;48.67;101386.09;5049354;28;20827;-61
2022/03/15 02:15:51;;;;;;;8.83;3.40;;;;;;;19.24;48.52;101377.84;5049497;28;20186;-61
2022/03/15 02:18:19;;;;;;;6.57;2.70;;;;;;;19.20;48.70;101380.59;5046232;28;20275;-61
2022/03/15 02:20:44;;;;;;;4.90;2.37;;;;;;;19.21;48.38;101367.94;5049205;28;20234;-61
2022/03/15 02:23:12;;;;;;;7.80;2.70;;;;;;;19.21;48.73;101364.25;5049710;28;20411;-61
2022/03/15 02:25:38;;;;;;;4.90;2.77;;;;;;;19.21;48.71;101369.97;5049782;28;20198;-61
2022/03/15 02:28:03;;;;;;;7.07;2.70;;;;;;;19.19;49.06;101369.47;5049076;28;20731;-61
2022/03/15 02:30:30;;;;;;;5.63;2.40;;;;;;;19.17;48.98;101374.75;5049447;28;20195;-61
2022/03/15 02:32:57;;;;;;;6.00;3.03;;;;;;;19.18;49.06;101370.69;5049416;28;20186;-61
2022/03/15 02:35:22;;;;;;;7.97;2.77;;;;;;;19.17;48.88;101371.88;5049468;28;20403;-61
2022/03/15 02:37:47;;;;;;;4.90;2.67;;;;;;;19.18;48.56;101364.97;5049358;28;20414;-61
2022/03/15 02:40:13;;;;;;;3.93;2.23;;;;;;;19.21;48.79;101356.47;5048887;28;20172;-60
2022/03/15 02:42:38;;;;;;;5.30;2.47;;;;;;;19.19;48.68;101355.16;5049377;28;20646;-60
2022/03/15 02:45:04;;;;;;;5.13;2.43;;;;;;;19.16;48.92;101359.59;5049548;28;20313;-60
2022/03/15 02:47:30;;;;;;;5.07;2.63;;;;;;;19.17;48.79;101358.38;5049305;28;20186;-60
2022/03/15 02:49:55;;;;;;;5.03;2.17;;;;;;;19.20;49.13;101354.81;5049231;28;20180;-61
2022/03/15 02:52:21;;;;;;;5.47;2.63;;;;;;;19.20;48.80;101354.81;5049211;28;20198;-61
2022/03/15 02:54:47;;;;;;;4.17;2.43;;;;;;;19.17;48.88;101352.66;5049444;28;20207;-61
2022/03/15 02:57:12;;;;;;;4.87;2.20;;;;;;;19.17;49.09;101349.78;5049908;28;20305;-61
2022/03/15 02:59:42;;;;;;;4.90;2.20;;;;;;;19.17;49.00;101360.44;5052035;28;20190;-61
2022/03/15 03:02:08;;;;;;;5.00;2.23;;;;;;;19.15;49.26;101362.81;5053509;28;20191;-61
2022/03/15 03:04:34;;;;;;;4.77;2.37;;;;;;;19.14;49.33;101362.00;5052594;28;20854;-61
2022/03/15 03:07:02;;;;;;;6.20;2.27;;;;;;;19.14;49.26;101370.56;5053203;28;20164;-61
2022/03/15 03:09:28;;;;;;;4.43;2.20;;;;;;;19.12;49.27;101370.06;5037390;28;20315;-61
2022/03/15 03:11:54;;;;;;;4.93;2.00;;;;;;;19.14;49.36;101361.13;5033124;28;20407;-61
2022/03/15 03:14:21;;;;;;;4.50;2.67;;;;;;;19.15;49.10;101362.81;5032872;28;20488;-61
2022/03/15 03:16:47;;;;;;;6.57;2.40;;;;;;;19.13;49.26;101366.06;5033077;28;20427;-61
2022/03/15 03:19:12;;;;;;;6.23;2.60;;;;;;;19.11;49.62;101359.84;5032860;28;20434;-61
2022/03/15 03:21:38;;;;;;;5.43;2.50;;;;;;;19.11;49.20;101359.84;5033394;28;20184;-61
2022/03/15 03:24:07;;;;;;;3.83;2.00;;;;;;;19.11;49.40;101351.25;5032881;28;20187;-61
2022/03/15 03:26:34;;;;;;;6.77;2.50;;;;;;;19.12;49.28;101341.47;5018672;28;20173;-61
2022/03/15 03:29:00;;;;;;;6.80;2.87;;;;;;;19.14;49.39;101347.69;5032475;28;20430;-61
2022/03/15 03:31:26;;;;;;;4.37;2.20;;;;;;;19.14;49.26;101350.53;5046657;28;20505;-61
2022/03/15 03:33:51;;;;;;;5.40;2.57;;;;;;;19.12;49.18;101350.03;5052328;28;20480;-61
2022/03/15 03:36:16;;;;;;;4.83;2.40;;;;;;;19.11;49.32;101342.66;5051886;28;20179;-60
2022/03/15 03:38:42;;;;;;;4.83;2.07;;;;;;;19.11;49.58;101348.38;5052222;28;20190;-60
2022/03/15 03:41:07;;;;;;;3.87;2.00;;;;;;;19.10;49.38;101352.44;5051822;28;20160;-60
2022/03/15 03:43:34;;;;;;;5.27;2.53;;;;;;;19.12;49.32;101358.63;5051795;28;20176;-60
2022/03/15 03:46:00;;;;;;;7.63;2.27;;;;;;;19.11;49.52;101356.16;5052227;28;20179;-61
2022/03/15 03:48:25;;;;;;;4.30;2.13;;;;;;;19.11;49.44;101348.38;5049337;28;20414;-61
2022/03/15 03:50:51;;;;;;;6.03;2.33;;;;;;;19.10;49.54;101335.28;5051415;28;20178;-61
2022/03/15 03:53:17;;;;;;;3.60;2.20;;;;;;;19.13;49.05;101334.56;5051984;28;20274;-61
2022/03/15 03:55:43;;;;;;;8.53;2.40;;;;;;;19.10;49.55;101337.28;5052058;28;20183;-61
2022/03/15 03:58:09;;;;;;;6.37;2.83;;;;;;;19.10;49.34;101341.00;5052263;28;20410;-61
2022/03/15 04:00:35;;;;;;;3.60;2.30;;;;;;;19.11;49.51;101345.53;5051864;28;20473;-61
2022/03/15 04:03:00;;;;;;;4.63;2.07;;;;;;;19.09;49.51;101342.19;5051767;28;20225;-61
2022/03/15 04:05:30;;;;;;;5.47;2.53;;;;;;;19.11;49.44;101345.53;5052016;28;20229;-61
2022/03/15 04:07:59;;;;;;;3.53;1.80;;;;;;;19.11;49.44;101339.78;5051010;28;20243;-61
2022/03/15 04:10:25;;;;;;;3.40;1.83;;;;;;;19.10;49.60;101346.72;5032964;28;20531;-61
2022/03/15 04:12:51;;;;;;;5.50;2.20;;;;;;;19.10;49.31;101351.59;5051943;28;20449;-60
2022/03/15 04:15:16;;;;;;;3.30;1.50;;;;;;;19.10;49.75;101348.72;5051889;28;20453;-60
2022/03/15 04:17:42;;;;;;;4.90;2.30;;;;;;;19.09;49.47;101347.91;5052203;28;20662;-60
2022/03/15 04:20:08;;;;;;;4.07;2.40;;;;;;;19.09;49.83;101355.66;5048052;28;20180;-60
2022/03/15 04:22:34;;;;;;;3.70;1.80;;;;;;;19.09;49.26;101353.66;5051687;28;20183;-60
2022/03/15 04:24:59;;;;;;;3.40;1.80;;;;;;;19.10;49.42;101355.31;5051871;28;20777;-60
2022/03/15 04:27:25;;;;;;;4.50;2.10;;;;;;;19.11;49.51;101342.66;5051457;28;20168;-61
2022/03/15 04:29:50;;;;;;;4.50;2.17;;;;;;;19.10;49.63;101355.31;5051051;28;20519;-61
2022/03/15 04:32:16;;;;;;;5.63;2.40;;;;;;;19.11;49.48;101336.94;5051719;28;20172;-60
2022/03/15 04:34:41;;;;;;;3.80;1.77;;;;;;;19.10;49.43;101348.72;5051708;28;20204;-60
2022/03/15 04:37:07;;;;;;;2.87;1.90;;;;;;;19.10;49.47;101346.72;5051299;28;20215;-60
2022/03/15 04:39:33;;;;;;;5.90;2.20;;;;;;;19.11;49.49;101339.78;5050896;28;20771;-60
2022/03/15 04:41:58;;;;;;;4.97;2.37;;;;;;;19.11;49.29;101342.66;5051405;28;20179;-60
2022/03/15 04:44:24;;;;;;;3.93;1.90;;;;;;;19.11;49.23;101342.66;5051273;28;20241;-60
2022/03/15 04:46:49;;;;;;;5.27;2.27;;;;;;;19.09;49.88;101341.34;5033686;28;20179;-60
2022/03/15 04:49:15;;;;;;;3.77;2.30;;;;;;;19.10;49.25;101335.28;5050888;28;20171;-60
2022/03/15 04:51:40;;;;;;;5.33;2.30;;;;;;;19.09;49.61;101336.47;5051253;28;20191;-61
2022/03/15 04:54:06;;;;;;;3.73;1.80;;;;;;;19.09;49.42;101329.91;5048925;28;20215;-61
2022/03/15 04:56:31;;;;;;;4.80;2.00;;;;;;;19.08;49.64;101333.97;5051078;28;20396;-61
2022/03/15 04:58:56;;;;;;;4.00;2.20;;;;;;;19.09;49.34;101330.75;5050742;28;20176;-61
2022/03/15 05:01:22;;;;;;;4.70;2.10;;;;;;;19.09;49.62;101327.03;5050923;28;20743;-61
2022/03/15 05:03:47;;;;;;;3.50;2.03;;;;;;;19.09;49.63;101333.59;5050955;28;20210;-61
2022/03/15 05:06:13;;;;;;;4.50;1.80;;;;;;;19.10;49.39;101331.56;5050970;28;20538;-61
2022/03/15 05:08:38;;;;;;;6.90;1.93;;;;;;;19.11;49.42;101330.41;5051070;28;20175;-61
2022/03/15 05:11:06;;;;;;;5.70;2.30;;;;;;;19.11;49.54;101333.25;5050266;28;20219;-61
2022/03/15 05:13:44;;;;;;;3.33;1.90;;;;;;;19.12;49.39;101332.88;5050125;28;20491;-60
2022/03/15 05:16:17;;;;;;;4.27;2.17;;;;;;;19.09;49.76;101322.16;5051100;28;20893;-61
2022/03/15 05:18:46;;;;;;;3.80;1.97;;;;;;;19.09;49.38;101319.28;5050634;28;20886;-61
2022/03/15 05:21:16;;;;;;;3.50;2.07;;;;;;;19.11;49.48;101324.66;5049945;28;20423;-61
2022/03/15 05:23:43;;;;;;;3.83;1.97;;;;;;;19.08;49.50;101322.50;5051049;28;20406;-61
2022/03/15 05:26:08;;;;;;;4.33;2.03;;;;;;;19.10;49.38;101329.53;5050062;28;20411;-61
2022/03/15 05:28:34;;;;;;;3.10;1.73;;;;;;;19.09;49.88;101324.16;5050472;28;20997;-61
2022/03/15 05:30:59;;;;;;;3.10;1.93;;;;;;;19.09;49.63;101335.63;5050183;28;20186;-61
2022/03/15 05:33:25;;;;;;;3.37;1.80;;;;;;;19.08;49.50;101320.50;5049490;28;21755;-61
2022/03/15 05:35:50;;;;;;;3.13;1.93;;;;;;;19.09;49.53;101319.28;5031858;28;20259;-61
2022/03/15 05:38:16;;;;;;;4.10;1.90;;;;;;;19.10;49.53;101331.56;5030694;28;20521;-61
2022/03/15 05:40:42;;;;;;;3.27;1.80;;;;;;;19.09;49.53;101330.75;5049732;28;20237;-61
2022/03/15 05:43:07;;;;;;;3.53;2.10;;;;;;;19.07;49.68;101327.38;5050027;28;20314;-60
2022/03/15 05:45:34;;;;;;;3.90;2.30;;;;;;;19.09;49.63;101325.03;5048233;28;20213;-60
2022/03/15 05:47:59;;;;;;;3.40;1.93;;;;;;;19.12;49.27;101334.91;5049524;28;20191;-61
2022/03/15 05:50:25;;;;;;;4.00;1.90;;;;;;;19.11;49.42;101334.06;5049685;28;20414;-61
2022/03/15 05:52:53;;;;;;;3.70;1.90;;;;;;;19.13;49.30;101337.44;5048749;28;20179;-61
2022/03/15 05:55:20;;;;;;;6.17;2.30;;;;;;;19.09;49.44;101336.47;5049838;28;20215;-61
2022/03/15 05:57:46;;;;;;;3.87;1.97;;;;;;;19.14;49.40;101341.94;5049745;28;20465;-61
2022/03/15 06:00:12;;;;;;;2.83;1.77;;;;;;;19.14;49.44;101344.81;5048336;28;20480;-60
2022/03/15 06:02:37;;;;;;;3.70;1.70;;;;;;;19.12;49.25;101338.59;5040787;28;20234;-61
2022/03/15 06:05:03;;;;;;;3.00;1.63;;;;;;;19.14;49.20;101341.94;5038332;28;20435;-61
2022/03/15 06:07:29;;;;;;;3.47;1.90;;;;;;;19.10;49.52;101332.41;5038811;28;20188;-61
2022/03/15 06:09:56;;;;;;;2.83;1.60;;;;;;;19.11;48.80;101336.94;5041944;28;20750;-61
2022/03/15 06:12:23;;;;;;;3.40;2.03;;;;;;;19.12;49.39;101341.47;5037524;28;20426;-61
2022/03/15 06:14:48;;;;;;;3.17;1.70;;;;;;;19.11;49.53;101333.25;5040059;28;20871;-60
2022/03/15 06:17:14;;;;;;;3.63;1.90;;;;;;;19.08;49.50;101337.66;5040396;28;20418;-60
2022/03/15 06:19:39;;;;;;;3.60;1.80;;;;;;;19.12;49.47;101346.38;5040090;28;20246;-61
2022/03/15 06:22:05;;;;;;;2.97;1.73;;;;;;;19.12;48.92;101346.38;5029531;28;20172;-61
2022/03/15 06:24:31;;;;;;;4.60;1.53;;;;;;;19.11;49.78;101339.78;5029662;28;20172;-61
2022/03/15 06:26:58;;;;;;;5.10;1.87;;;;;;;19.10;49.47;101332.41;5029356;28;20291;-61
2022/03/15 06:29:24;;;;;;;4.17;2.13;;;;;;;19.11;49.52;101328.34;5031008;28;20910;-60
2022/03/15 06:31:50;;;;;;;3.00;1.77;;;;;;;19.12;49.72;101332.06;5046330;28;20447;-60
2022/03/15 06:34:15;;;;;;;3.30;2.00;;;;;;;19.11;49.43;101327.53;5049262;28;20814;-60
2022/03/15 06:36:41;;;;;;;2.77;1.53;;;;;;;19.12;49.41;101318.56;5049117;28;20172;-61
2022/03/15 06:39:07;;;;;;;2.27;1.30;;;;;;;19.13;49.48;101330.84;5045323;28;20619;-60
2022/03/15 06:41:33;;;;;;;2.87;1.80;;;;;;;19.15;49.40;101325.59;5019953;28;20208;-60
2022/03/15 06:43:58;;;;;;;2.87;1.60;;;;;;;19.13;49.44;101317.38;5039315;28;20172;-60
2022/03/15 06:46:24;;;;;;;3.70;1.90;;;;;;;19.12;49.46;101309.97;5042253;28;20437;-60
2022/03/15 06:48:49;;;;;;;4.10;2.13;;;;;;;19.12;49.51;101309.97;5049294;28;20195;-61
2022/03/15 06:51:15;;;;;;;3.10;1.70;;;;;;;19.13;49.33;101302.22;5045880;28;20179;-61
2022/03/15 06:53:41;;;;;;;3.33;2.07;;;;;;;19.16;49.35;101295.78;5049201;28;20246;-60
2022/03/15 06:56:06;;;;;;;3.77;1.90;;;;;;;19.11;49.48;101287.47;5048707;28;20541;-60
2022/03/15 06:58:32;;;;;;;3.40;1.70;;;;;;;19.12;49.39;101289.94;5049437;28;20186;-60
2022/03/15 07:00:57;;;;;;;3.40;1.67;;;;;;;19.10;49.40;101286.59;5048368;28;20287;-60
2022/03/15 07:03:23;;;;;;;2.57;1.60;;;;;;;19.14;49.26;101283.84;5047860;28;20196;-60
2022/03/15 07:05:48;;;;;;;4.43;1.83;;;;;;;19.15;49.10;101283.50;5048491;28;20519;-61
2022/03/15 07:08:14;;;;;;;3.47;1.73;;;;;;;19.13;49.92;101287.91;5048483;28;20172;-60
2022/03/15 07:10:39;;;;;;;3.30;1.67;;;;;;;19.13;49.58;101285.91;5038776;28;20719;-60
2022/03/15 07:13:04;;;;;;;2.93;1.80;;;;;;;19.14;49.22;101284.69;5034098;28;20188;-60
2022/03/15 07:15:30;;;;;;;4.67;2.00;;;;;;;19.15;49.24;101279.78;5029214;28;20179;-60
2022/03/15 07:17:56;;;;;;;3.00;1.60;;;;;;;19.16;49.24;101285.16;5029583;28;20165;-61
2022/03/15 07:20:22;;;;;;;3.30;1.83;;;;;;;19.16;49.33;101288.03;5047120;28;20190;-62
2022/03/15 07:22:48;;;;;;;3.37;2.23;;;;;;;19.10;49.52;101280.03;5045046;28;20446;-61
2022/03/15 07:25:13;;;;;;;8.90;4.60;;;;;;;18.76;46.81;101281.41;5028002;28;20414;-61
2022/03/15 07:27:39;;;;;;;9.80;6.97;;;;;;;18.63;47.75;101276.06;5047866;28;20290;-61
2022/03/15 07:30:05;;;;;;;16.43;7.30;;;;;;;19.19;48.74;101261.53;5047906;28;20183;-61
2022/03/15 07:32:30;;;;;;;19.53;8.70;;;;;;;19.68;49.69;101265.09;5048580;28;20183;-61
2022/03/15 07:34:56;;;;;;;11.80;6.50;;;;;;;19.61;48.56;101251.38;5048244;28;20211;-61
2022/03/15 07:37:21;;;;;;;10.60;5.80;;;;;;;19.57;46.56;101249.63;5047382;28;20183;-62
2022/03/15 07:39:47;;;;;;;13.13;6.40;;;;;;;19.44;47.31;101254.56;5046758;28;20515;-60
2022/03/15 07:42:12;;;;;;;11.00;5.50;;;;;;;19.49;47.02;101245.72;5047887;28;20180;-61
2022/03/15 07:44:39;;;;;;;15.43;6.00;;;;;;;19.66;46.95;101251.13;5032967;28;20299;-61
2022/03/15 07:47:04;;;;;;;12.47;5.03;;;;;;;19.75;46.24;101253.81;5049891;28;20310;-61
2022/03/15 07:49:30;;;;;;;10.37;5.40;;;;;;;19.73;46.07;101244.75;5051960;28;20414;-61
2022/03/15 07:51:55;;;;;;;7.60;4.40;;;;;;;19.73;46.49;101233.31;5051871;28;20175;-61
2022/03/15 07:54:21;;;;;;;10.90;5.23;;;;;;;19.80;46.13;101231.47;5050375;28;20276;-62
2022/03/15 07:56:47;;;;;;;10.60;5.43;;;;;;;19.77;45.95;101226.47;5051274;28;20584;-61
2022/03/15 07:59:12;;;;;;;10.10;5.20;;;;;;;19.73;46.70;101230.44;5051393;28;20172;-61
2022/03/15 08:01:38;;;;;;;10.37;4.90;;;;;;;19.80;45.90;101222.88;5052183;28;20921;-61
2022/03/15 08:04:03;;;;;;;9.97;4.50;;;;;;;19.86;45.82;101224.25;5052187;28;20196;-62
2022/03/15 08:06:30;;;;;;;11.30;5.33;;;;;;;19.76;46.29;101221.94;5050464;28;20184;-62
2022/03/15 08:08:58;;;;;;;8.77;4.30;;;;;;;19.70;46.48;101226.28;5046978;28;20184;-63
2022/03/15 08:11:24;;;;;;;13.80;4.70;;;;;;;19.64;46.78;101219.16;5047765;28;20434;-63
2022/03/15 08:13:53;;;;;;;9.43;4.20;;;;;;;19.66;46.83;101222.47;5051055;28;20508;-63
2022/03/15 08:16:18;;;;;;;10.80;4.50;;;;;;;19.68;45.73;101219.25;5051006;28;20415;-62
2022/03/15 08:18:44;;;;;;;7.37;4.20;;;;;;;19.76;45.80;101212.53;5051238;28;20445;-61
2022/03/15 08:21:10;;;;;;;9.63;5.27;;;;;;;19.75;46.71;101214.53;5051144;28;20176;-62
2022/03/15 08:23:36;;;;;;;13.87;6.30;;;;;;;19.73;47.30;101213.25;5051244;28;20191;-61
2022/03/15 08:26:01;;;;;;;9.30;5.13;;;;;;;19.68;46.83;101213.50;5048293;28;20461;-61
2022/03/15 08:28:27;;;;;;;13.57;4.93;;;;;;;19.63;46.58;101214.63;5051308;28;20168;-62
2022/03/15 08:30:53;;;;;;;8.00;4.80;;;;;;;19.64;46.02;101210.56;5050666;28;20188;-60
2022/03/15 08:33:19;;;;;;;10.73;4.80;;;;;;;19.65;46.20;101217.94;5033484;28;20179;-63
2022/03/15 08:35:44;;;;;;;10.40;4.83;;;;;;;19.69;46.53;101215.16;5051375;28;20429;-61
2022/03/15 08:38:11;;;;;;;11.00;4.67;;;;;;;19.73;46.76;101214.09;5050120;28;20191;-62
2022/03/15 08:40:36;;;;;;;8.10;4.23;;;;;;;19.79;47.39;101206.03;5051001;28;20176;-62
2022/03/15 08:43:02;;;;;;;8.27;4.27;;;;;;;19.76;47.66;101187.56;5051130;28;20467;-62
2022/03/15 08:45:27;;;;;;;7.97;4.50;;;;;;;19.74;48.09;101187.09;5051110;28;20208;-62
2022/03/15 08:47:53;;;;;;;10.97;4.90;;;;;;;19.84;48.60;101180.81;5050349;28;20544;-62
2022/03/15 08:50:20;;;;;;;10.20;5.10;;;;;;;19.74;48.34;101181.38;5049485;28;20186;-60
2022/03/15 08:52:47;;;;;;;9.97;4.80;;;;;;;19.63;48.72;101185.97;5051111;28;20168;-60
2022/03/15 08:55:13;;;;;;;9.43;4.47;;;;;;;19.63;48.80;101185.97;5049775;28;20466;-60
2022/03/15 08:57:38;;;;;;;6.90;4.10;;;;;;;19.63;49.07;101180.25;5050705;28;20480;-60
2022/03/15 09:00:05;;;;;;;9.10;4.23;;;;;;;19.62;49.13;101184.28;5050324;28;20199;-60
2022/03/15 09:02:31;;;;;;;16.43;4.50;;;;;;;19.54;49.27;101179.59;5049948;28;20241;-60
2022/03/15 09:04:56;;;;;;;14.60;4.87;;;;;;;19.52;50.00;101166.81;5049631;28;20458;-60
2022/03/15 09:07:22;;;;;;;12.07;4.53;;;;;;;19.50;50.15;101166.34;5050264;28;20647;-60
2022/03/15 09:09:47;;;;;;;13.97;4.60;;;;;;;19.54;49.89;101162.41;5032402;28;20270;-60
2022/03/15 09:12:13;;;;;;;12.90;4.60;;;;;;;19.54;49.97;101164.41;5033667;28;20188;-60
2022/03/15 09:14:38;;;;;;;13.80;5.23;;;;;;;19.49;50.17;101164.69;5050195;28;20253;-60
2022/03/15 09:17:05;;;;;;;12.07;4.67;;;;;;;19.47;50.54;101152.78;5050552;28;20171;-60
2022/03/15 09:19:30;;;;;;;12.60;4.10;;;;;;;19.50;50.19;101146.28;5049999;28;20199;-60
2022/03/15 09:21:56;;;;;;;11.80;3.83;;;;;;;19.48;50.30;101148.69;5050707;28;20839;-60
2022/03/15 09:24:21;;;;;;;10.13;3.50;;;;;;;19.47;50.32;101139.25;5050491;28;20587;-59
2022/03/15 09:26:47;;;;;;;9.13;3.97;;;;;;;19.51;50.59;101134.47;5050385;28;20241;-59
2022/03/15 09:29:12;;;;;;;10.47;4.50;;;;;;;19.49;50.42;101142.63;5050112;28;20191;-59
2022/03/15 09:31:38;;;;;;;6.37;3.80;;;;;;;19.49;50.55;101133.19;5042176;28;20192;-59
2022/03/15 09:34:03;;;;;;;11.83;4.53;;;;;;;19.49;50.20;101139.75;5030378;28;20200;-59
2022/03/15 09:36:29;;;;;;;14.43;3.90;;;;;;;19.43;50.56;101138.38;5030353;28;20191;-59
2022/03/15 09:38:55;;;;;;;8.93;4.20;;;;;;;19.42;50.73;101138.72;5029686;28;20573;-59
2022/03/15 09:41:20;;;;;;;8.13;4.17;;;;;;;19.40;50.58;101135.38;5029324;28;20160;-59
2022/03/15 09:43:47;;;;;;;10.13;4.93;;;;;;;19.37;50.72;101127.53;5030142;28;20439;-59
2022/03/15 09:46:13;;;;;;;10.60;4.20;;;;;;;19.35;50.89;101127.91;5036211;28;20262;-59
2022/03/15 09:48:40;;;;;;;11.57;4.10;;;;;;;19.34;50.73;101131.97;5037300;28;20428;-59
2022/03/15 09:51:05;;;;;;;11.63;4.27;;;;;;;19.34;50.79;101137.69;5023629;28;20183;-60
2022/03/15 09:53:32;;;;;;;8.00;3.97;;;;;;;19.34;50.88;101126.25;5049850;28;20519;-60
2022/03/15 09:55:57;;;;;;;11.53;4.30;;;;;;;19.35;50.98;101132.78;5050020;28;20178;-60
2022/03/15 09:58:23;;;;;;;11.17;3.40;;;;;;;19.33;50.90;101118.00;5048532;28;20406;-59
2022/03/15 10:00:52;;;;;;;11.93;3.50;;;;;;;19.35;50.62;101110.72;5049450;28;20635;-61
2022/03/15 10:03:19;;;;;;;8.87;3.90;;;;;;;19.35;50.71;101105.00;5049556;28;20176;-60
2022/03/15 10:05:45;;;;;;;10.77;3.40;;;;;;;19.35;50.84;101104.16;5032086;28;20426;-60
2022/03/15 10:08:12;;;;;;;7.00;3.77;;;;;;;19.35;50.67;101096.41;5049724;28;20773;-60
2022/03/15 10:10:37;;;;;;;11.33;4.60;;;;;;;19.34;50.71;101089.00;5032278;28;20315;-60
2022/03/15 10:13:03;;;;;;;8.70;4.27;;;;;;;19.34;50.82;101080.44;5047628;28;20422;-60
2022/03/15 10:15:28;;;;;;;7.73;4.20;;;;;;;19.34;50.92;101073.84;5049264;28;20219;-60
2022/03/15 10:18:04;;;;;;;9.20;3.60;;;;;;;19.34;50.59;101071.84;5049124;28;20171;-60
2022/03/15 10:20:31;;;;;;;11.13;4.33;;;;;;;19.33;50.72;101060.75;5032790;28;20183;-60
2022/03/15 10:23:00;;;;;;;9.67;3.70;;;;;;;19.34;50.61;101050.94;5029527;28;20514;-60
2022/03/15 10:25:27;;;;;;;8.00;3.90;;;;;;;19.35;50.74;101062.03;5012100;28;21186;-60
2022/03/15 10:27:57;;;;;;;8.37;4.10;;;;;;;19.33;50.86;101061.59;5029450;28;20506;-61
2022/03/15 10:30:23;;;;;;;7.87;3.50;;;;;;;19.33;50.83;101066.47;5033252;28;20488;-60
2022/03/15 10:32:48;;;;;;;4.90;3.00;;;;;;;19.33;50.72;101052.16;5031749;28;20799;-60
2022/03/15 10:35:17;;;;;;;6.40;3.20;;;;;;;19.32;50.71;101053.34;5029460;28;20315;-59
2022/03/15 10:37:43;;;;;;;9.03;3.20;;;;;;;19.32;50.88;101047.63;5029565;28;20539;-59
2022/03/15 10:40:09;;;;;;;6.83;3.20;;;;;;;19.31;50.70;101032.47;5029382;28;20517;-59
2022/03/15 10:42:41;;;;;;;6.27;3.40;;;;;;;19.33;50.56;101041.53;5029175;28;20180;-59
2022/03/15 10:45:22;;;;;;;6.97;3.90;;;;;;;19.31;50.79;101035.34;5029317;28;20418;-59
2022/03/15 10:47:49;;;;;;;5.10;3.17;;;;;;;19.29;50.95;101032.03;5029459;28;20437;-59
2022/03/15 10:50:16;;;;;;;6.50;3.37;;;;;;;19.31;50.85;101037.38;5029147;28;20534;-59
2022/03/15 10:52:42;;;;;;;7.23;3.20;;;;;;;19.29;51.25;101029.16;5029574;28;20464;-59
2022/03/15 10:55:32;;;;;;;10.40;4.30;;;;;;;19.29;51.00;101026.31;5029319;28;20514;-59
2022/03/15 10:58:02;;;;;;;8.50;3.40;;;;;;;19.27;50.89;101028.69;5029325;28;20192;-59
2022/03/15 11:00:37;;;;;;;7.03;3.03;;;;;;;19.30;50.78;101012.78;5035097;28;20436;-59
2022/03/15 11:03:10;;;;;;;10.17;3.30;;;;;;;19.28;50.83;101013.19;5049156;28;20984;-59
2022/03/15 11:05:40;;;;;;;8.00;3.27;;;;;;;19.26;51.03;101004.13;5049071;28;20456;-59
2022/03/15 11:08:07;;;;;;;6.93;3.70;;;;;;;19.26;50.91;101003.31;5049145;28;20437;-59
2022/03/15 11:10:33;;;;;;;7.63;3.10;;;;;;;19.29;50.63;100993.97;5048574;28;20527;-59
2022/03/15 11:13:07;;;;;;;6.30;3.37;;;;;;;19.27;50.83;100994.31;5048318;28;20556;-59
2022/03/15 11:15:34;;;;;;;6.10;2.83;;;;;;;19.27;50.74;100988.59;5049261;28;21028;-59
2022/03/15 11:18:04;;;;;;;5.60;3.20;;;;;;;19.28;50.71;100986.59;5050882;28;20422;-59
2022/03/15 11:20:38;;;;;;;4.53;2.70;;;;;;;19.25;50.95;100982.44;5051869;28;20437;-59